sensor_id;sensor_type;location;lat;lon;timestamp;P1;durP1;ratioP1;P2;durP2;ratioP2
47251;SDS011;32991;51.374;11.586;2023-06-14T00:01:30;2.90;;;2.03;;
47251;SDS011;32991;51.374;11.586;2023-06-14T00:03:58;4.20;;;2.38;;
47251;SDS011;32991;51.374;11.586;2023-06-14T00:06:25;4.40;;;2.10;;
47251;SDS011;32991;51.374;11.586;2023-06-14T00:08:52;3.80;;;2.25;;
47251;SDS011;32991;51.374;11.586;2023-06-14T00:11:18;4.65;;;2.35;;
47251;SDS011;32991;51.374;11.586;2023-06-14T00:13:45;2.75;;;2.10;;
47251;SDS011;32991;51.374;11.586;2023-06-14T00:16:12;3.58;;;1.98;;
47251;SDS011;32991;51.374;11.586;2023-06-14T00:18:38;3.60;;;2.22;;
47251;SDS011;32991;51.374;11.586;2023-06-14T00:21:05;5.10;;;2.25;;
47251;SDS011;32991;51.374;11.586;2023-06-14T00:23:31;3.53;;;2.10;;
47251;SDS011;32991;51.374;11.586;2023-06-14T00:25:58;3.55;;;2.00;;
47251;SDS011;32991;51.374;11.586;2023-06-14T00:28:24;3.55;;;2.30;;
47251;SDS011;32991;51.374;11.586;2023-06-14T00:30:51;3.45;;;2.20;;
47251;SDS011;32991;51.374;11.586;2023-06-14T00:33:17;5.07;;;2.05;;
47251;SDS011;32991;51.374;11.586;2023-06-14T00:35:44;4.40;;;2.28;;
47251;SDS011;32991;51.374;11.586;2023-06-14T00:38:11;4.10;;;2.13;;
47251;SDS011;32991;51.374;11.586;2023-06-14T00:40:39;3.78;;;2.20;;
47251;SDS011;32991;51.374;11.586;2023-06-14T00:43:06;3.25;;;2.28;;
47251;SDS011;32991;51.374;11.586;2023-06-14T00:45:32;2.97;;;2.05;;
47251;SDS011;32991;51.374;11.586;2023-06-14T00:48:02;3.92;;;2.33;;
47251;SDS011;32991;51.374;11.586;2023-06-14T00:50:29;3.45;;;2.47;;
47251;SDS011;32991;51.374;11.586;2023-06-14T00:52:59;5.25;;;2.50;;
47251;SDS011;32991;51.374;11.586;2023-06-14T00:55:26;5.15;;;2.15;;
47251;SDS011;32991;51.374;11.586;2023-06-14T00:57:54;3.40;;;2.13;;
47251;SDS011;32991;51.374;11.586;2023-06-14T01:00:21;3.67;;;2.22;;
47251;SDS011;32991;51.374;11.586;2023-06-14T01:02:48;3.67;;;2.58;;
47251;SDS011;32991;51.374;11.586;2023-06-14T01:05:16;4.60;;;2.65;;
47251;SDS011;32991;51.374;11.586;2023-06-14T01:13:29;3.25;;;2.35;;
47251;SDS011;32991;51.374;11.586;2023-06-14T01:16:02;3.63;;;2.22;;
47251;SDS011;32991;51.374;11.586;2023-06-14T01:18:29;2.92;;;2.08;;
47251;SDS011;32991;51.374;11.586;2023-06-14T01:21:00;2.85;;;2.40;;
47251;SDS011;32991;51.374;11.586;2023-06-14T01:23:32;4.43;;;2.05;;
47251;SDS011;32991;51.374;11.586;2023-06-14T01:25:59;2.85;;;2.00;;
47251;SDS011;32991;51.374;11.586;2023-06-14T01:28:30;4.70;;;2.30;;
47251;SDS011;32991;51.374;11.586;2023-06-14T01:30:58;3.40;;;2.30;;
47251;SDS011;32991;51.374;11.586;2023-06-14T01:33:32;2.20;;;2.03;;
47251;SDS011;32991;51.374;11.586;2023-06-14T01:35:59;4.22;;;2.22;;
47251;SDS011;32991;51.374;11.586;2023-06-14T01:38:29;9.50;;;2.45;;
47251;SDS011;32991;51.374;11.586;2023-06-14T01:40:57;3.80;;;2.45;;
47251;SDS011;32991;51.374;11.586;2023-06-14T01:43:24;5.38;;;2.28;;
47251;SDS011;32991;51.374;11.586;2023-06-14T01:45:52;3.08;;;2.13;;
47251;SDS011;32991;51.374;11.586;2023-06-14T01:48:20;2.78;;;2.10;;
47251;SDS011;32991;51.374;11.586;2023-06-14T01:50:48;3.55;;;2.45;;
47251;SDS011;32991;51.374;11.586;2023-06-14T01:53:15;6.53;;;2.63;;
47251;SDS011;32991;51.374;11.586;2023-06-14T01:55:42;3.75;;;2.72;;
47251;SDS011;32991;51.374;11.586;2023-06-14T01:58:10;4.13;;;2.35;;
47251;SDS011;32991;51.374;11.586;2023-06-14T02:00:37;5.57;;;2.58;;
47251;SDS011;32991;51.374;11.586;2023-06-14T02:03:04;3.03;;;2.58;;
47251;SDS011;32991;51.374;11.586;2023-06-14T02:05:30;3.20;;;2.47;;
47251;SDS011;32991;51.374;11.586;2023-06-14T02:07:57;3.50;;;2.63;;
47251;SDS011;32991;51.374;11.586;2023-06-14T02:10:24;3.80;;;2.80;;
47251;SDS011;32991;51.374;11.586;2023-06-14T02:12:50;3.17;;;2.70;;
47251;SDS011;32991;51.374;11.586;2023-06-14T02:15:17;7.13;;;2.63;;
47251;SDS011;32991;51.374;11.586;2023-06-14T02:17:44;3.33;;;2.65;;
47251;SDS011;32991;51.374;11.586;2023-06-14T02:20:11;4.93;;;2.72;;
47251;SDS011;32991;51.374;11.586;2023-06-14T02:22:38;5.07;;;2.60;;
47251;SDS011;32991;51.374;11.586;2023-06-14T02:25:06;4.20;;;2.72;;
47251;SDS011;32991;51.374;11.586;2023-06-14T02:27:34;2.92;;;2.60;;
47251;SDS011;32991;51.374;11.586;2023-06-14T02:30:02;4.57;;;2.70;;
47251;SDS011;32991;51.374;11.586;2023-06-14T02:32:31;4.40;;;2.80;;
47251;SDS011;32991;51.374;11.586;2023-06-14T02:35:00;5.22;;;2.65;;
47251;SDS011;32991;51.374;11.586;2023-06-14T02:37:27;3.85;;;2.65;;
47251;SDS011;32991;51.374;11.586;2023-06-14T02:39:54;4.97;;;2.88;;
47251;SDS011;32991;51.374;11.586;2023-06-14T02:42:20;3.92;;;2.58;;
47251;SDS011;32991;51.374;11.586;2023-06-14T02:44:47;3.30;;;2.50;;
47251;SDS011;32991;51.374;11.586;2023-06-14T02:47:20;3.88;;;2.92;;
47251;SDS011;32991;51.374;11.586;2023-06-14T02:49:46;4.15;;;2.70;;
47251;SDS011;32991;51.374;11.586;2023-06-14T02:52:14;4.50;;;2.55;;
47251;SDS011;32991;51.374;11.586;2023-06-14T02:54:41;2.70;;;2.50;;
47251;SDS011;32991;51.374;11.586;2023-06-14T02:57:09;7.15;;;3.28;;
47251;SDS011;32991;51.374;11.586;2023-06-14T02:59:37;3.35;;;2.90;;
47251;SDS011;32991;51.374;11.586;2023-06-14T03:02:04;3.53;;;2.83;;
47251;SDS011;32991;51.374;11.586;2023-06-14T03:04:32;3.53;;;2.83;;
47251;SDS011;32991;51.374;11.586;2023-06-14T03:07:07;5.07;;;2.80;;
47251;SDS011;32991;51.374;11.586;2023-06-14T03:09:39;5.28;;;3.00;;
47251;SDS011;32991;51.374;11.586;2023-06-14T03:12:08;3.10;;;2.80;;
47251;SDS011;32991;51.374;11.586;2023-06-14T03:14:36;4.32;;;3.00;;
47251;SDS011;32991;51.374;11.586;2023-06-14T03:17:03;2.92;;;2.63;;
47251;SDS011;32991;51.374;11.586;2023-06-14T03:19:33;5.15;;;2.90;;
47251;SDS011;32991;51.374;11.586;2023-06-14T03:22:00;4.55;;;2.70;;
47251;SDS011;32991;51.374;11.586;2023-06-14T03:24:29;3.50;;;2.70;;
47251;SDS011;32991;51.374;11.586;2023-06-14T03:26:57;5.70;;;3.00;;
47251;SDS011;32991;51.374;11.586;2023-06-14T03:29:25;4.40;;;3.28;;
47251;SDS011;32991;51.374;11.586;2023-06-14T03:31:59;4.00;;;2.75;;
47251;SDS011;32991;51.374;11.586;2023-06-14T03:34:35;3.08;;;2.88;;
47251;SDS011;32991;51.374;11.586;2023-06-14T03:37:02;4.05;;;3.17;;
47251;SDS011;32991;51.374;11.586;2023-06-14T03:39:29;5.32;;;3.35;;
47251;SDS011;32991;51.374;11.586;2023-06-14T03:41:57;6.05;;;2.70;;
47251;SDS011;32991;51.374;11.586;2023-06-14T03:44:24;3.40;;;2.90;;
47251;SDS011;32991;51.374;11.586;2023-06-14T03:46:52;5.18;;;3.08;;
47251;SDS011;32991;51.374;11.586;2023-06-14T03:49:19;4.65;;;3.10;;
47251;SDS011;32991;51.374;11.586;2023-06-14T03:51:46;7.00;;;2.97;;
47251;SDS011;32991;51.374;11.586;2023-06-14T03:54:19;3.30;;;3.00;;
47251;SDS011;32991;51.374;11.586;2023-06-14T03:57:06;4.53;;;3.05;;
47251;SDS011;32991;51.374;11.586;2023-06-14T03:59:33;6.65;;;3.08;;
47251;SDS011;32991;51.374;11.586;2023-06-14T04:02:00;4.40;;;3.22;;
47251;SDS011;32991;51.374;11.586;2023-06-14T04:04:26;5.60;;;2.80;;
47251;SDS011;32991;51.374;11.586;2023-06-14T04:06:57;4.65;;;3.05;;
47251;SDS011;32991;51.374;11.586;2023-06-14T04:09:25;9.27;;;3.17;;
47251;SDS011;32991;51.374;11.586;2023-06-14T04:11:52;3.60;;;3.15;;
47251;SDS011;32991;51.374;11.586;2023-06-14T04:14:19;7.28;;;3.70;;
47251;SDS011;32991;51.374;11.586;2023-06-14T04:16:46;8.50;;;3.40;;
47251;SDS011;32991;51.374;11.586;2023-06-14T04:19:15;4.90;;;2.80;;
47251;SDS011;32991;51.374;11.586;2023-06-14T04:21:42;5.57;;;3.20;;
47251;SDS011;32991;51.374;11.586;2023-06-14T04:24:09;4.55;;;3.13;;
47251;SDS011;32991;51.374;11.586;2023-06-14T04:26:42;3.38;;;3.08;;
47251;SDS011;32991;51.374;11.586;2023-06-14T04:29:12;4.53;;;3.00;;
47251;SDS011;32991;51.374;11.586;2023-06-14T04:31:47;7.00;;;3.10;;
47251;SDS011;32991;51.374;11.586;2023-06-14T04:34:14;3.78;;;3.05;;
47251;SDS011;32991;51.374;11.586;2023-06-14T04:36:47;5.70;;;3.25;;
47251;SDS011;32991;51.374;11.586;2023-06-14T04:39:20;5.38;;;3.00;;
47251;SDS011;32991;51.374;11.586;2023-06-14T04:41:48;4.55;;;3.22;;
47251;SDS011;32991;51.374;11.586;2023-06-14T04:44:19;3.85;;;2.90;;
47251;SDS011;32991;51.374;11.586;2023-06-14T04:46:51;4.82;;;3.00;;
47251;SDS011;32991;51.374;11.586;2023-06-14T04:49:21;14.30;;;3.30;;
47251;SDS011;32991;51.374;11.586;2023-06-14T04:51:53;2.88;;;2.67;;
47251;SDS011;32991;51.374;11.586;2023-06-14T04:54:25;4.72;;;3.10;;
47251;SDS011;32991;51.374;11.586;2023-06-14T04:56:52;5.25;;;2.63;;
47251;SDS011;32991;51.374;11.586;2023-06-14T04:59:24;6.22;;;2.92;;
47251;SDS011;32991;51.374;11.586;2023-06-14T05:01:51;4.25;;;3.33;;
47251;SDS011;32991;51.374;11.586;2023-06-14T05:04:18;3.67;;;3.03;;
47251;SDS011;32991;51.374;11.586;2023-06-14T05:06:45;4.32;;;2.85;;
47251;SDS011;32991;51.374;11.586;2023-06-14T05:09:13;4.60;;;3.20;;
47251;SDS011;32991;51.374;11.586;2023-06-14T05:11:41;3.95;;;3.33;;
47251;SDS011;32991;51.374;11.586;2023-06-14T05:14:11;5.28;;;3.40;;
47251;SDS011;32991;51.374;11.586;2023-06-14T05:16:38;3.70;;;2.97;;
47251;SDS011;32991;51.374;11.586;2023-06-14T05:19:05;3.65;;;2.70;;
47251;SDS011;32991;51.374;11.586;2023-06-14T05:21:32;4.85;;;2.92;;
47251;SDS011;32991;51.374;11.586;2023-06-14T05:24:07;3.47;;;3.03;;
47251;SDS011;32991;51.374;11.586;2023-06-14T05:26:35;3.58;;;3.05;;
47251;SDS011;32991;51.374;11.586;2023-06-14T05:29:01;7.95;;;3.13;;
47251;SDS011;32991;51.374;11.586;2023-06-14T05:31:29;5.25;;;3.33;;
47251;SDS011;32991;51.374;11.586;2023-06-14T05:33:55;5.70;;;3.38;;
47251;SDS011;32991;51.374;11.586;2023-06-14T05:36:22;6.70;;;3.30;;
47251;SDS011;32991;51.374;11.586;2023-06-14T05:38:49;4.47;;;3.20;;
47251;SDS011;32991;51.374;11.586;2023-06-14T05:41:16;6.25;;;3.40;;
47251;SDS011;32991;51.374;11.586;2023-06-14T05:43:43;4.75;;;3.25;;
47251;SDS011;32991;51.374;11.586;2023-06-14T05:46:10;4.07;;;3.08;;
47251;SDS011;32991;51.374;11.586;2023-06-14T05:48:36;4.53;;;3.08;;
47251;SDS011;32991;51.374;11.586;2023-06-14T05:51:03;4.53;;;3.20;;
47251;SDS011;32991;51.374;11.586;2023-06-14T05:53:29;3.65;;;3.22;;
47251;SDS011;32991;51.374;11.586;2023-06-14T05:55:56;4.57;;;3.15;;
47251;SDS011;32991;51.374;11.586;2023-06-14T05:58:23;5.07;;;3.45;;
47251;SDS011;32991;51.374;11.586;2023-06-14T06:00:49;4.82;;;3.65;;
47251;SDS011;32991;51.374;11.586;2023-06-14T06:03:17;6.60;;;3.58;;
47251;SDS011;32991;51.374;11.586;2023-06-14T06:05:43;5.68;;;4.65;;
47251;SDS011;32991;51.374;11.586;2023-06-14T06:08:10;20.33;;;14.63;;
47251;SDS011;32991;51.374;11.586;2023-06-14T06:10:36;8.45;;;5.40;;
47251;SDS011;32991;51.374;11.586;2023-06-14T06:13:03;4.53;;;3.72;;
47251;SDS011;32991;51.374;11.586;2023-06-14T06:15:30;6.43;;;4.25;;
47251;SDS011;32991;51.374;11.586;2023-06-14T06:17:56;6.35;;;3.95;;
47251;SDS011;32991;51.374;11.586;2023-06-14T06:20:23;3.90;;;3.50;;
47251;SDS011;32991;51.374;11.586;2023-06-14T06:22:56;6.00;;;3.40;;
47251;SDS011;32991;51.374;11.586;2023-06-14T06:25:23;4.72;;;3.50;;
47251;SDS011;32991;51.374;11.586;2023-06-14T06:27:52;5.32;;;3.72;;
47251;SDS011;32991;51.374;11.586;2023-06-14T06:30:24;4.90;;;3.67;;
47251;SDS011;32991;51.374;11.586;2023-06-14T06:32:51;5.45;;;3.90;;
47251;SDS011;32991;51.374;11.586;2023-06-14T06:35:18;6.95;;;4.20;;
47251;SDS011;32991;51.374;11.586;2023-06-14T06:37:45;4.82;;;4.05;;
47251;SDS011;32991;51.374;11.586;2023-06-14T06:40:12;4.00;;;3.65;;
47251;SDS011;32991;51.374;11.586;2023-06-14T06:42:39;5.63;;;3.90;;
47251;SDS011;32991;51.374;11.586;2023-06-14T06:45:09;5.88;;;3.80;;
47251;SDS011;32991;51.374;11.586;2023-06-14T06:47:36;7.68;;;4.18;;
47251;SDS011;32991;51.374;11.586;2023-06-14T06:50:02;5.28;;;3.60;;
47251;SDS011;32991;51.374;11.586;2023-06-14T06:52:29;5.35;;;3.90;;
47251;SDS011;32991;51.374;11.586;2023-06-14T06:54:56;4.32;;;3.90;;
47251;SDS011;32991;51.374;11.586;2023-06-14T06:57:23;5.32;;;3.83;;
47251;SDS011;32991;51.374;11.586;2023-06-14T06:59:50;7.88;;;3.88;;
47251;SDS011;32991;51.374;11.586;2023-06-14T07:02:16;6.43;;;4.15;;
47251;SDS011;32991;51.374;11.586;2023-06-14T07:04:43;10.07;;;4.10;;
47251;SDS011;32991;51.374;11.586;2023-06-14T07:07:10;4.18;;;3.65;;
47251;SDS011;32991;51.374;11.586;2023-06-14T07:09:36;6.60;;;3.50;;
47251;SDS011;32991;51.374;11.586;2023-06-14T07:12:03;5.55;;;4.07;;
47251;SDS011;32991;51.374;11.586;2023-06-14T07:14:30;7.60;;;3.88;;
47251;SDS011;32991;51.374;11.586;2023-06-14T07:16:56;6.13;;;3.90;;
47251;SDS011;32991;51.374;11.586;2023-06-14T07:19:23;4.43;;;4.03;;
47251;SDS011;32991;51.374;11.586;2023-06-14T07:21:49;7.35;;;3.90;;
47251;SDS011;32991;51.374;11.586;2023-06-14T07:24:19;12.88;;;3.72;;
47251;SDS011;32991;51.374;11.586;2023-06-14T07:26:47;6.47;;;3.63;;
47251;SDS011;32991;51.374;11.586;2023-06-14T07:29:17;5.97;;;3.78;;
47251;SDS011;32991;51.374;11.586;2023-06-14T07:31:44;9.80;;;4.15;;
47251;SDS011;32991;51.374;11.586;2023-06-14T07:34:10;7.53;;;3.47;;
47251;SDS011;32991;51.374;11.586;2023-06-14T07:36:37;7.88;;;3.75;;
47251;SDS011;32991;51.374;11.586;2023-06-14T07:39:04;8.23;;;4.00;;
47251;SDS011;32991;51.374;11.586;2023-06-14T07:41:32;9.20;;;4.63;;
47251;SDS011;32991;51.374;11.586;2023-06-14T07:43:59;4.97;;;3.95;;
47251;SDS011;32991;51.374;11.586;2023-06-14T07:46:26;3.95;;;3.40;;
47251;SDS011;32991;51.374;11.586;2023-06-14T07:48:53;7.03;;;3.50;;
47251;SDS011;32991;51.374;11.586;2023-06-14T07:51:19;4.22;;;3.10;;
47251;SDS011;32991;51.374;11.586;2023-06-14T07:53:48;4.18;;;3.30;;
47251;SDS011;32991;51.374;11.586;2023-06-14T07:56:15;4.80;;;3.70;;
47251;SDS011;32991;51.374;11.586;2023-06-14T07:58:41;5.38;;;3.33;;
47251;SDS011;32991;51.374;11.586;2023-06-14T08:01:08;5.88;;;3.50;;
47251;SDS011;32991;51.374;11.586;2023-06-14T08:03:35;7.63;;;3.83;;
47251;SDS011;32991;51.374;11.586;2023-06-14T08:06:02;5.63;;;3.72;;
47251;SDS011;32991;51.374;11.586;2023-06-14T08:08:28;3.60;;;3.30;;
47251;SDS011;32991;51.374;11.586;2023-06-14T08:10:55;3.67;;;2.97;;
47251;SDS011;32991;51.374;11.586;2023-06-14T08:13:22;3.92;;;3.30;;
47251;SDS011;32991;51.374;11.586;2023-06-14T08:15:48;8.52;;;3.05;;
47251;SDS011;32991;51.374;11.586;2023-06-14T08:18:15;7.70;;;3.10;;
47251;SDS011;32991;51.374;11.586;2023-06-14T08:20:41;3.42;;;3.13;;
47251;SDS011;32991;51.374;11.586;2023-06-14T08:23:08;3.60;;;3.22;;
47251;SDS011;32991;51.374;11.586;2023-06-14T08:25:35;4.57;;;3.40;;
47251;SDS011;32991;51.374;11.586;2023-06-14T08:28:02;3.42;;;2.92;;
47251;SDS011;32991;51.374;11.586;2023-06-14T08:30:28;7.60;;;3.03;;
47251;SDS011;32991;51.374;11.586;2023-06-14T08:32:55;2.83;;;2.50;;
47251;SDS011;32991;51.374;11.586;2023-06-14T08:35:41;3.53;;;2.55;;
47251;SDS011;32991;51.374;11.586;2023-06-14T08:38:08;3.47;;;3.17;;
47251;SDS011;32991;51.374;11.586;2023-06-14T08:40:37;3.20;;;2.75;;
47251;SDS011;32991;51.374;11.586;2023-06-14T08:43:04;7.18;;;2.92;;
47251;SDS011;32991;51.374;11.586;2023-06-14T08:45:31;3.15;;;2.72;;
47251;SDS011;32991;51.374;11.586;2023-06-14T08:47:58;4.72;;;2.65;;
47251;SDS011;32991;51.374;11.586;2023-06-14T08:50:27;4.45;;;2.50;;
47251;SDS011;32991;51.374;11.586;2023-06-14T08:52:58;3.40;;;2.80;;
47251;SDS011;32991;51.374;11.586;2023-06-14T08:55:29;2.88;;;2.60;;
47251;SDS011;32991;51.374;11.586;2023-06-14T08:58:01;4.57;;;2.70;;
47251;SDS011;32991;51.374;11.586;2023-06-14T09:00:29;4.32;;;3.05;;
47251;SDS011;32991;51.374;11.586;2023-06-14T09:02:57;3.75;;;2.60;;
47251;SDS011;32991;51.374;11.586;2023-06-14T09:05:25;5.93;;;2.38;;
47251;SDS011;32991;51.374;11.586;2023-06-14T09:07:53;3.85;;;2.65;;
47251;SDS011;32991;51.374;11.586;2023-06-14T09:10:23;3.22;;;2.55;;
47251;SDS011;32991;51.374;11.586;2023-06-14T09:12:52;4.60;;;2.35;;
47251;SDS011;32991;51.374;11.586;2023-06-14T09:15:19;3.78;;;3.28;;
47251;SDS011;32991;51.374;11.586;2023-06-14T09:17:46;3.90;;;2.92;;
47251;SDS011;32991;51.374;11.586;2023-06-14T09:20:14;3.38;;;2.60;;
47251;SDS011;32991;51.374;11.586;2023-06-14T09:22:46;4.75;;;2.70;;
47251;SDS011;32991;51.374;11.586;2023-06-14T09:25:13;4.55;;;3.03;;
47251;SDS011;32991;51.374;11.586;2023-06-14T09:28:01;3.55;;;2.80;;
47251;SDS011;32991;51.374;11.586;2023-06-14T09:30:28;4.15;;;2.90;;
47251;SDS011;32991;51.374;11.586;2023-06-14T09:32:54;3.88;;;2.80;;
47251;SDS011;32991;51.374;11.586;2023-06-14T09:35:22;4.30;;;3.20;;
47251;SDS011;32991;51.374;11.586;2023-06-14T09:37:49;4.47;;;2.97;;
47251;SDS011;32991;51.374;11.586;2023-06-14T09:40:20;4.47;;;2.90;;
47251;SDS011;32991;51.374;11.586;2023-06-14T09:42:47;8.10;;;3.30;;
47251;SDS011;32991;51.374;11.586;2023-06-14T09:45:13;7.63;;;3.05;;
47251;SDS011;32991;51.374;11.586;2023-06-14T09:47:43;3.28;;;2.85;;
47251;SDS011;32991;51.374;11.586;2023-06-14T09:50:31;3.85;;;3.17;;
47251;SDS011;32991;51.374;11.586;2023-06-14T09:52:59;3.40;;;3.10;;
47251;SDS011;32991;51.374;11.586;2023-06-14T09:55:34;3.28;;;2.67;;
47251;SDS011;32991;51.374;11.586;2023-06-14T09:58:04;4.95;;;2.80;;
47251;SDS011;32991;51.374;11.586;2023-06-14T10:00:33;9.02;;;2.80;;
47251;SDS011;32991;51.374;11.586;2023-06-14T10:03:03;4.30;;;3.03;;
47251;SDS011;32991;51.374;11.586;2023-06-14T10:05:34;5.82;;;2.88;;
47251;SDS011;32991;51.374;11.586;2023-06-14T10:08:07;5.40;;;2.95;;
47251;SDS011;32991;51.374;11.586;2023-06-14T10:10:35;2.90;;;2.28;;
47251;SDS011;32991;51.374;11.586;2023-06-14T10:13:02;3.20;;;2.55;;
47251;SDS011;32991;51.374;11.586;2023-06-14T10:15:37;5.05;;;2.45;;
47251;SDS011;32991;51.374;11.586;2023-06-14T10:18:14;2.63;;;2.05;;
47251;SDS011;32991;51.374;11.586;2023-06-14T10:21:07;2.53;;;2.13;;
47251;SDS011;32991;51.374;11.586;2023-06-14T10:23:42;2.40;;;2.20;;
47251;SDS011;32991;51.374;11.586;2023-06-14T10:26:21;3.65;;;2.28;;
47251;SDS011;32991;51.374;11.586;2023-06-14T10:29:06;2.55;;;2.30;;
47251;SDS011;32991;51.374;11.586;2023-06-14T10:31:40;3.03;;;2.42;;
47251;SDS011;32991;51.374;11.586;2023-06-14T10:34:08;3.78;;;2.50;;
47251;SDS011;32991;51.374;11.586;2023-06-14T10:36:35;5.10;;;2.60;;
47251;SDS011;32991;51.374;11.586;2023-06-14T10:39:05;2.80;;;2.25;;
47251;SDS011;32991;51.374;11.586;2023-06-14T10:41:53;2.42;;;2.03;;
47251;SDS011;32991;51.374;11.586;2023-06-14T10:46:58;2.38;;;2.15;;
47251;SDS011;32991;51.374;11.586;2023-06-14T10:49:39;2.53;;;2.33;;
47251;SDS011;32991;51.374;11.586;2023-06-14T10:52:14;2.63;;;1.90;;
47251;SDS011;32991;51.374;11.586;2023-06-14T10:54:56;2.55;;;2.35;;
47251;SDS011;32991;51.374;11.586;2023-06-14T10:57:36;5.15;;;2.15;;
47251;SDS011;32991;51.374;11.586;2023-06-14T11:00:20;2.30;;;2.00;;
47251;SDS011;32991;51.374;11.586;2023-06-14T11:03:06;4.25;;;2.25;;
47251;SDS011;32991;51.374;11.586;2023-06-14T11:11:18;3.05;;;1.70;;
47251;SDS011;32991;51.374;11.586;2023-06-14T11:13:45;2.25;;;1.65;;
47251;SDS011;32991;51.374;11.586;2023-06-14T11:16:15;2.30;;;1.60;;
47251;SDS011;32991;51.374;11.586;2023-06-14T11:18:43;2.92;;;1.80;;
47251;SDS011;32991;51.374;11.586;2023-06-14T11:21:10;2.55;;;1.60;;
47251;SDS011;32991;51.374;11.586;2023-06-14T11:23:36;2.35;;;1.95;;
47251;SDS011;32991;51.374;11.586;2023-06-14T11:26:03;1.95;;;1.80;;
47251;SDS011;32991;51.374;11.586;2023-06-14T11:28:38;2.58;;;1.52;;
47251;SDS011;32991;51.374;11.586;2023-06-14T11:31:06;2.90;;;1.80;;
47251;SDS011;32991;51.374;11.586;2023-06-14T11:33:33;2.08;;;1.88;;
47251;SDS011;32991;51.374;11.586;2023-06-14T11:36:03;2.63;;;1.63;;
47251;SDS011;32991;51.374;11.586;2023-06-14T11:38:36;2.42;;;1.80;;
47251;SDS011;32991;51.374;11.586;2023-06-14T11:41:03;3.22;;;1.98;;
47251;SDS011;32991;51.374;11.586;2023-06-14T11:43:30;3.17;;;1.80;;
47251;SDS011;32991;51.374;11.586;2023-06-14T11:45:59;6.43;;;2.30;;
47251;SDS011;32991;51.374;11.586;2023-06-14T11:48:51;2.67;;;2.22;;
47251;SDS011;32991;51.374;11.586;2023-06-14T11:51:18;2.28;;;2.00;;
47251;SDS011;32991;51.374;11.586;2023-06-14T11:53:45;2.67;;;2.08;;
47251;SDS011;32991;51.374;11.586;2023-06-14T11:56:12;2.53;;;1.90;;
47251;SDS011;32991;51.374;11.586;2023-06-14T11:58:43;2.13;;;1.92;;
47251;SDS011;32991;51.374;11.586;2023-06-14T12:01:13;2.60;;;2.05;;
47251;SDS011;32991;51.374;11.586;2023-06-14T12:03:46;3.58;;;2.00;;
47251;SDS011;32991;51.374;11.586;2023-06-14T12:06:14;2.28;;;2.03;;
47251;SDS011;32991;51.374;11.586;2023-06-14T12:08:42;4.18;;;2.00;;
47251;SDS011;32991;51.374;11.586;2023-06-14T12:11:13;5.65;;;2.13;;
47251;SDS011;32991;51.374;11.586;2023-06-14T12:13:43;2.28;;;2.08;;
47251;SDS011;32991;51.374;11.586;2023-06-14T12:16:10;1.88;;;1.75;;
47251;SDS011;32991;51.374;11.586;2023-06-14T12:18:38;2.65;;;2.13;;
47251;SDS011;32991;51.374;11.586;2023-06-14T12:21:06;5.15;;;1.95;;
47251;SDS011;32991;51.374;11.586;2023-06-14T12:23:46;5.18;;;2.08;;
47251;SDS011;32991;51.374;11.586;2023-06-14T12:26:17;3.55;;;2.15;;
47251;SDS011;32991;51.374;11.586;2023-06-14T12:28:45;5.38;;;1.90;;
47251;SDS011;32991;51.374;11.586;2023-06-14T12:31:12;2.83;;;2.20;;
47251;SDS011;32991;51.374;11.586;2023-06-14T12:33:40;2.58;;;2.05;;
47251;SDS011;32991;51.374;11.586;2023-06-14T12:36:08;2.88;;;2.30;;
47251;SDS011;32991;51.374;11.586;2023-06-14T12:38:36;4.07;;;2.22;;
47251;SDS011;32991;51.374;11.586;2023-06-14T12:41:03;3.80;;;2.20;;
47251;SDS011;32991;51.374;11.586;2023-06-14T12:43:30;3.95;;;2.40;;
47251;SDS011;32991;51.374;11.586;2023-06-14T12:45:57;3.70;;;2.35;;
47251;SDS011;32991;51.374;11.586;2023-06-14T12:48:23;2.35;;;2.13;;
47251;SDS011;32991;51.374;11.586;2023-06-14T12:50:50;2.78;;;2.08;;
47251;SDS011;32991;51.374;11.586;2023-06-14T12:53:16;4.32;;;2.30;;
47251;SDS011;32991;51.374;11.586;2023-06-14T12:55:43;4.40;;;2.35;;
47251;SDS011;32991;51.374;11.586;2023-06-14T12:58:10;2.45;;;2.15;;
47251;SDS011;32991;51.374;11.586;2023-06-14T13:00:39;3.08;;;2.20;;
47251;SDS011;32991;51.374;11.586;2023-06-14T13:03:05;2.60;;;2.03;;
47251;SDS011;32991;51.374;11.586;2023-06-14T13:05:32;4.93;;;2.45;;
47251;SDS011;32991;51.374;11.586;2023-06-14T13:08:00;2.35;;;2.15;;
47251;SDS011;32991;51.374;11.586;2023-06-14T13:10:26;3.65;;;2.10;;
47251;SDS011;32991;51.374;11.586;2023-06-14T13:12:54;2.50;;;2.30;;
47251;SDS011;32991;51.374;11.586;2023-06-14T13:15:21;3.70;;;2.42;;
47251;SDS011;32991;51.374;11.586;2023-06-14T13:17:47;6.05;;;2.50;;
47251;SDS011;32991;51.374;11.586;2023-06-14T13:20:15;4.15;;;2.78;;
47251;SDS011;32991;51.374;11.586;2023-06-14T13:22:45;3.65;;;2.75;;
47251;SDS011;32991;51.374;11.586;2023-06-14T13:25:12;3.05;;;2.60;;
47251;SDS011;32991;51.374;11.586;2023-06-14T13:27:39;3.03;;;2.72;;
47251;SDS011;32991;51.374;11.586;2023-06-14T13:30:07;3.83;;;3.05;;
47251;SDS011;32991;51.374;11.586;2023-06-14T13:32:35;7.78;;;2.97;;
47251;SDS011;32991;51.374;11.586;2023-06-14T13:35:02;4.95;;;3.47;;
47251;SDS011;32991;51.374;11.586;2023-06-14T13:37:30;3.88;;;3.08;;
47251;SDS011;32991;51.374;11.586;2023-06-14T13:39:56;4.75;;;2.95;;
47251;SDS011;32991;51.374;11.586;2023-06-14T13:42:23;6.22;;;3.42;;
47251;SDS011;32991;51.374;11.586;2023-06-14T13:44:50;3.30;;;3.00;;
47251;SDS011;32991;51.374;11.586;2023-06-14T13:47:17;3.58;;;2.63;;
47251;SDS011;32991;51.374;11.586;2023-06-14T13:49:44;5.90;;;2.78;;
47251;SDS011;32991;51.374;11.586;2023-06-14T13:52:11;3.95;;;3.13;;
47251;SDS011;32991;51.374;11.586;2023-06-14T13:54:38;2.90;;;2.70;;
47251;SDS011;32991;51.374;11.586;2023-06-14T13:57:04;4.07;;;2.90;;
47251;SDS011;32991;51.374;11.586;2023-06-14T13:59:31;4.22;;;3.15;;
47251;SDS011;32991;51.374;11.586;2023-06-14T14:01:57;4.32;;;2.97;;
47251;SDS011;32991;51.374;11.586;2023-06-14T14:04:24;3.53;;;2.83;;
47251;SDS011;32991;51.374;11.586;2023-06-14T14:06:51;6.50;;;3.33;;
47251;SDS011;32991;51.374;11.586;2023-06-14T14:09:17;6.95;;;3.20;;
47251;SDS011;32991;51.374;11.586;2023-06-14T14:11:44;6.97;;;3.10;;
47251;SDS011;32991;51.374;11.586;2023-06-14T14:14:11;8.85;;;3.42;;
47251;SDS011;32991;51.374;11.586;2023-06-14T14:16:38;7.97;;;3.28;;
47251;SDS011;32991;51.374;11.586;2023-06-14T14:19:05;6.65;;;3.40;;
47251;SDS011;32991;51.374;11.586;2023-06-14T14:21:33;8.32;;;3.10;;
47251;SDS011;32991;51.374;11.586;2023-06-14T14:23:59;7.32;;;3.00;;
47251;SDS011;32991;51.374;11.586;2023-06-14T14:26:26;5.45;;;3.03;;
47251;SDS011;32991;51.374;11.586;2023-06-14T14:28:52;5.55;;;3.30;;
47251;SDS011;32991;51.374;11.586;2023-06-14T14:31:19;3.42;;;2.83;;
47251;SDS011;32991;51.374;11.586;2023-06-14T14:33:45;8.40;;;3.10;;
47251;SDS011;32991;51.374;11.586;2023-06-14T14:36:12;4.80;;;2.97;;
47251;SDS011;32991;51.374;11.586;2023-06-14T14:38:39;3.60;;;2.85;;
47251;SDS011;32991;51.374;11.586;2023-06-14T14:41:06;5.40;;;2.90;;
47251;SDS011;32991;51.374;11.586;2023-06-14T14:43:32;3.13;;;2.72;;
47251;SDS011;32991;51.374;11.586;2023-06-14T14:45:59;8.27;;;3.00;;
47251;SDS011;32991;51.374;11.586;2023-06-14T14:48:26;5.70;;;3.00;;
47251;SDS011;32991;51.374;11.586;2023-06-14T14:50:52;3.25;;;2.65;;
47251;SDS011;32991;51.374;11.586;2023-06-14T14:53:19;5.30;;;2.63;;
47251;SDS011;32991;51.374;11.586;2023-06-14T14:55:45;4.28;;;2.65;;